createdAt,value
2023-01-25T00:02:14.384Z,3.12
2023-01-25T00:04:41.045Z,3.14
2023-01-25T00:07:07.604Z,3.15
2023-01-25T00:09:34.142Z,3.17
2023-01-25T00:12:00.785Z,3.17
2023-01-25T00:14:27.381Z,3.17
2023-01-25T00:16:54.087Z,3.14
2023-01-25T00:19:20.772Z,3.15
2023-01-25T00:21:47.461Z,3.16
2023-01-25T00:24:14.622Z,3.14
2023-01-25T00:26:44.073Z,3.16
2023-01-25T00:29:14.468Z,3.15
2023-01-25T00:31:45.362Z,3.12
2023-01-25T00:34:24.535Z,3.14
2023-01-25T00:36:57.938Z,3.13
2023-01-25T00:39:26.153Z,3.06
2023-01-25T00:41:52.661Z,3.05
2023-01-25T00:44:19.292Z,3.04
2023-01-25T00:46:46.679Z,3.05
2023-01-25T00:49:22.308Z,3.04
2023-01-25T00:51:49.512Z,3.05
2023-01-25T00:54:16.849Z,3.05
2023-01-25T00:56:44.971Z,3.05
2023-01-25T00:59:12.513Z,3.02
2023-01-25T01:01:43.009Z,3.03
2023-01-25T01:04:10.420Z,3.02
2023-01-25T01:06:41.507Z,3.02
2023-01-25T01:09:12.303Z,3.01
2023-01-25T01:11:39.027Z,3.02
2023-01-25T01:14:05.619Z,2.98
2023-01-25T01:16:32.622Z,3.02
2023-01-25T01:18:59.253Z,3.00
2023-01-25T01:21:25.913Z,3.03
2023-01-25T01:23:54.091Z,3.05
2023-01-25T01:26:20.729Z,3.06
2023-01-25T01:28:47.687Z,3.08
2023-01-25T01:31:17.365Z,3.04
2023-01-25T01:33:56.442Z,2.96
2023-01-25T01:36:25.937Z,2.98
2023-01-25T01:38:53.478Z,2.98
2023-01-25T01:41:20.532Z,2.97
2023-01-25T01:43:47.579Z,3.01
2023-01-25T01:46:23.357Z,2.99
2023-01-25T01:49:04.829Z,2.97
2023-01-25T01:52:07.837Z,2.95
2023-01-25T01:54:41.919Z,2.97
2023-01-25T01:57:32.421Z,2.94
2023-01-25T02:00:04.725Z,2.92
2023-01-25T02:02:40.460Z,2.89
2023-01-25T02:05:11.152Z,2.92
2023-01-25T02:07:39.113Z,2.89
2023-01-25T02:10:09.039Z,2.91
2023-01-25T02:12:36.877Z,2.95
2023-01-25T02:15:04.212Z,2.99
2023-01-25T02:17:35.589Z,3.00
2023-01-25T02:20:07.378Z,2.98
2023-01-25T02:22:42.337Z,3.01
2023-01-25T02:25:10.962Z,3.00
2023-01-25T02:27:41.272Z,2.99
2023-01-25T02:30:09.537Z,3.00
2023-01-25T02:32:36.077Z,2.99
2023-01-25T02:35:04.142Z,2.97
2023-01-25T02:37:30.916Z,2.97
2023-01-25T02:39:57.512Z,2.98
2023-01-25T02:42:30.735Z,3.01
2023-01-25T02:44:58.832Z,3.02
2023-01-25T02:47:25.448Z,3.01
2023-01-25T02:49:52.005Z,3.00
2023-01-25T02:52:18.566Z,3.00
2023-01-25T02:54:45.777Z,2.99
2023-01-25T02:57:12.404Z,3.03
2023-01-25T02:59:43.684Z,3.01
2023-01-25T03:02:12.075Z,3.02
2023-01-25T03:04:38.730Z,3.04
2023-01-25T03:07:05.550Z,2.98
2023-01-25T03:09:32.204Z,2.93
2023-01-25T03:11:59.054Z,2.96
2023-01-25T03:14:25.605Z,2.99
2023-01-25T03:16:52.118Z,3.02
2023-01-25T03:19:21.619Z,3.05
2023-01-25T03:21:48.306Z,3.07
2023-01-25T03:24:15.051Z,3.07
2023-01-25T03:27:04.437Z,3.10
2023-01-25T03:29:40.610Z,3.08
2023-01-25T03:32:12.157Z,3.08
2023-01-25T03:34:38.876Z,3.09
2023-01-25T03:37:06.095Z,3.10
2023-01-25T03:39:34.155Z,3.09
2023-01-25T03:42:00.713Z,3.07
2023-01-25T03:44:27.279Z,3.06
2023-01-25T03:46:54.053Z,3.05
2023-01-25T03:49:21.041Z,3.09
2023-01-25T03:51:47.810Z,3.13
2023-01-25T03:54:15.506Z,3.17
2023-01-25T03:56:42.043Z,3.20
2023-01-25T03:59:14.725Z,3.19
2023-01-25T04:01:41.516Z,3.20
2023-01-25T04:04:08.191Z,3.22
2023-01-25T04:06:35.839Z,3.22
2023-01-25T04:09:02.833Z,3.25
2023-01-25T04:11:35.245Z,3.25
2023-01-25T04:14:02.111Z,3.21
2023-01-25T04:16:36.169Z,3.18
2023-01-25T04:19:21.573Z,3.20
2023-01-25T04:21:49.241Z,3.28
2023-01-25T04:24:18.442Z,3.32
2023-01-25T04:26:46.248Z,3.33
2023-01-25T04:29:13.317Z,3.35
2023-01-25T04:31:40.382Z,3.40
2023-01-25T04:34:07.057Z,3.35
2023-01-25T04:36:33.802Z,3.33
2023-01-25T04:39:00.621Z,3.31
2023-01-25T04:41:29.648Z,3.31
2023-01-25T04:43:58.337Z,3.34
2023-01-25T04:46:27.299Z,3.37
2023-01-25T04:48:54.710Z,3.43
2023-01-25T04:51:21.305Z,3.45
2023-01-25T04:53:47.866Z,3.45
2023-01-25T04:56:14.586Z,3.47
2023-01-25T04:58:47.032Z,3.47
2023-01-25T05:01:13.782Z,3.48
2023-01-25T05:03:40.576Z,3.34
2023-01-25T05:06:14.848Z,3.30
2023-01-25T05:08:41.768Z,3.24
2023-01-25T05:11:08.541Z,3.26
2023-01-25T05:14:01.286Z,3.29
2023-01-25T05:16:31.444Z,3.30
2023-01-25T05:18:58.910Z,3.31
2023-01-25T05:21:59.598Z,3.08
2023-01-25T05:24:34.918Z,3.16
2023-01-25T05:27:05.318Z,3.23
2023-01-25T05:29:50.841Z,3.26
2023-01-25T05:32:20.717Z,3.29
2023-01-25T05:34:48.126Z,3.30
2023-01-25T05:37:17.608Z,3.19
2023-01-25T05:39:46.144Z,3.22
2023-01-25T05:42:15.107Z,3.18
2023-01-25T05:44:42.110Z,3.13
2023-01-25T05:47:18.320Z,3.11
2023-01-25T05:49:45.092Z,3.16
2023-01-25T05:52:18.108Z,3.16
2023-01-25T05:54:44.828Z,3.19
2023-01-25T05:57:14.255Z,3.11
2023-01-25T05:59:41.187Z,3.14
2023-01-25T06:02:10.006Z,3.22
2023-01-25T06:04:37.398Z,3.16
2023-01-25T06:07:04.226Z,3.16
2023-01-25T06:09:32.085Z,3.14
2023-01-25T06:11:58.803Z,3.17
2023-01-25T06:14:25.455Z,3.08
2023-01-25T06:16:52.543Z,3.06
2023-01-25T06:19:37.477Z,3.01
2023-01-25T06:22:21.381Z,3.08
2023-01-25T06:24:47.949Z,3.06
2023-01-25T06:27:14.488Z,3.05
2023-01-25T06:29:41.000Z,3.03
2023-01-25T06:32:07.656Z,3.08
2023-01-25T06:34:34.208Z,3.09
2023-01-25T06:37:00.848Z,3.15
2023-01-25T06:39:27.435Z,3.16
2023-01-25T06:41:55.053Z,3.03
2023-01-25T06:44:21.712Z,3.08
2023-01-25T06:46:48.380Z,3.13
2023-01-25T06:49:15.058Z,3.10
2023-01-25T06:51:41.620Z,3.14
2023-01-25T06:54:08.206Z,3.12
2023-01-25T06:56:34.900Z,3.06
2023-01-25T06:59:01.426Z,3.01
2023-01-25T07:01:30.358Z,2.96
2023-01-25T07:03:58.558Z,2.87
2023-01-25T07:06:26.248Z,2.96
2023-01-25T07:08:52.947Z,2.96
2023-01-25T07:11:19.617Z,2.73
2023-01-25T07:13:47.265Z,2.73
2023-01-25T07:16:16.576Z,2.82
2023-01-25T07:18:43.310Z,2.72
2023-01-25T07:21:14.143Z,2.79
2023-01-25T07:23:41.693Z,2.65
2023-01-25T07:26:16.618Z,2.75
2023-01-25T07:28:43.150Z,2.86
2023-01-25T07:31:09.822Z,2.84
2023-01-25T07:33:36.424Z,2.67
2023-01-25T07:36:04.721Z,2.73
2023-01-25T07:38:31.585Z,2.74
2023-01-25T07:40:58.103Z,2.72
2023-01-25T07:43:25.327Z,2.68
2023-01-25T07:45:52.800Z,2.65
2023-01-25T07:48:20.225Z,2.71
2023-01-25T07:50:49.722Z,2.75
2023-01-25T07:53:17.102Z,2.78
2023-01-25T07:55:43.785Z,2.77
2023-01-25T07:58:11.703Z,2.62
2023-01-25T08:00:38.375Z,2.68
2023-01-25T08:03:07.616Z,2.71
2023-01-25T08:05:34.171Z,2.61
2023-01-25T08:08:00.717Z,2.62
2023-01-25T08:10:27.270Z,2.52
2023-01-25T08:12:53.880Z,2.45
2023-01-25T08:15:20.534Z,2.53
2023-01-25T08:17:47.126Z,2.50
2023-01-25T08:20:14.043Z,2.55
2023-01-25T08:22:40.575Z,2.54
2023-01-25T08:25:08.067Z,2.52
2023-01-25T08:27:34.803Z,2.58
2023-01-25T08:30:01.457Z,2.52
2023-01-25T08:32:28.069Z,2.50
2023-01-25T08:34:54.659Z,2.54
2023-01-25T08:37:21.188Z,2.59
2023-01-25T08:39:47.724Z,2.54
2023-01-25T08:42:14.234Z,2.46
2023-01-25T08:44:40.852Z,2.49
2023-01-25T08:47:07.391Z,2.56
2023-01-25T08:49:34.929Z,2.61
2023-01-25T08:52:01.583Z,2.58
2023-01-25T08:54:28.311Z,2.54
2023-01-25T08:56:54.901Z,2.56
2023-01-25T08:59:21.480Z,2.56
2023-01-25T09:01:48.068Z,2.56
2023-01-25T09:04:14.805Z,2.50
2023-01-25T09:06:41.353Z,2.49
2023-01-25T09:09:08.596Z,2.52
2023-01-25T09:11:37.220Z,2.59
2023-01-25T09:14:04.661Z,2.39
2023-01-25T09:16:31.506Z,2.44
2023-01-25T09:19:00.844Z,2.48
2023-01-25T09:21:28.027Z,2.46
2023-01-25T09:24:10.011Z,2.44
2023-01-25T09:26:39.479Z,2.52
2023-01-25T09:29:07.922Z,2.58
2023-01-25T09:31:35.170Z,2.59
2023-01-25T09:34:22.333Z,2.57
2023-01-25T09:36:48.888Z,2.59
2023-01-25T09:39:15.455Z,2.57
2023-01-25T09:42:00.662Z,2.55
2023-01-25T09:44:45.358Z,2.54
2023-01-25T09:47:31.819Z,2.53
2023-01-25T09:50:18.814Z,2.53
2023-01-25T09:53:11.249Z,2.60
2023-01-25T09:55:38.162Z,2.62
2023-01-25T09:58:04.847Z,2.61
2023-01-25T10:00:38.200Z,2.70
2023-01-25T10:03:25.183Z,2.66
2023-01-25T10:05:58.217Z,2.68
2023-01-25T10:08:31.454Z,2.69
2023-01-25T10:11:14.137Z,2.73
2023-01-25T10:13:40.740Z,2.77
2023-01-25T10:16:24.629Z,2.76
2023-01-25T10:19:18.453Z,2.70
2023-01-25T10:22:05.865Z,2.65
2023-01-25T10:25:00.209Z,2.54
2023-01-25T10:27:37.953Z,2.57
2023-01-25T10:30:27.807Z,2.50
2023-01-25T10:32:57.760Z,2.54
2023-01-25T10:35:36.058Z,2.56
2023-01-25T10:38:07.526Z,2.66
2023-01-25T10:40:44.552Z,2.72
2023-01-25T10:43:18.540Z,2.78
2023-01-25T10:45:45.071Z,2.76
2023-01-25T10:48:20.793Z,2.70
2023-01-25T10:50:50.498Z,2.67
2023-01-25T10:53:37.627Z,2.72
2023-01-25T10:56:10.296Z,2.75
2023-01-25T10:58:39.205Z,2.74
2023-01-25T11:01:08.542Z,2.76
2023-01-25T11:03:37.912Z,2.73
2023-01-25T11:06:05.403Z,2.75
2023-01-25T11:08:31.860Z,2.73
2023-01-25T11:10:59.195Z,2.74
2023-01-25T11:13:26.806Z,2.72
2023-01-25T11:15:56.056Z,2.74
2023-01-25T11:18:25.359Z,2.75
2023-01-25T11:21:18.362Z,2.76
2023-01-25T11:24:07.067Z,2.76
2023-01-25T11:26:36.997Z,2.81
2023-01-25T11:29:13.899Z,2.81
2023-01-25T11:31:46.280Z,2.63
2023-01-25T11:34:18.900Z,2.67
2023-01-25T11:37:08.909Z,2.68
2023-01-25T11:39:44.537Z,2.63
2023-01-25T11:42:26.593Z,2.66
2023-01-25T11:44:59.615Z,2.71
2023-01-25T11:47:52.711Z,2.76
2023-01-25T11:50:39.317Z,2.81
2023-01-25T11:53:24.356Z,2.83
2023-01-25T11:56:15.308Z,2.85
2023-01-25T11:58:51.516Z,2.82
2023-01-25T12:01:31.239Z,2.85
2023-01-25T12:04:35.553Z,2.81
2023-01-25T12:07:04.214Z,2.84
2023-01-25T12:09:47.134Z,2.73
2023-01-25T12:12:25.329Z,2.70
2023-01-25T12:15:21.107Z,2.61
2023-01-25T12:17:58.180Z,2.64
2023-01-25T12:20:27.317Z,2.59
2023-01-25T12:23:11.333Z,2.43
2023-01-25T12:26:02.171Z,2.46
2023-01-25T12:28:41.038Z,2.53
2023-01-25T12:31:22.401Z,2.49
2023-01-25T12:34:03.667Z,2.49
2023-01-25T12:36:38.539Z,2.47
2023-01-25T12:39:10.667Z,2.48
2023-01-25T12:41:50.405Z,2.48
2023-01-25T12:44:27.470Z,2.55
2023-01-25T12:47:04.788Z,2.57
2023-01-25T12:49:38.518Z,2.51
2023-01-25T12:52:20.648Z,2.55
2023-01-25T12:54:47.755Z,2.54
2023-01-25T12:57:32.961Z,2.57
2023-01-25T13:00:09.967Z,2.62
2023-01-25T13:02:50.219Z,2.66
2023-01-25T13:05:29.992Z,2.72
2023-01-25T13:08:07.325Z,2.73
2023-01-25T13:10:40.125Z,2.68
2023-01-25T13:13:27.371Z,2.54
2023-01-25T13:15:55.136Z,2.48
2023-01-25T13:18:24.734Z,2.51
2023-01-25T13:20:53.726Z,2.37
2023-01-25T13:23:33.678Z,2.23
2023-01-25T13:26:22.208Z,2.12
2023-01-25T13:28:50.039Z,2.21
2023-01-25T13:31:51.490Z,2.13
2023-01-25T13:34:36.349Z,2.18
2023-01-25T13:37:13.368Z,2.12
2023-01-25T13:39:48.088Z,2.18
2023-01-25T13:42:23.452Z,2.23
2023-01-25T13:44:53.517Z,2.29
2023-01-25T13:47:23.334Z,2.35
2023-01-25T13:50:09.587Z,2.38
2023-01-25T13:52:37.210Z,2.41
2023-01-25T13:55:17.112Z,2.39
2023-01-25T13:57:44.055Z,2.44
2023-01-25T14:00:16.793Z,2.47
2023-01-25T14:02:51.880Z,2.54
2023-01-25T14:05:23.415Z,2.51
2023-01-25T14:07:51.714Z,2.48
2023-01-25T14:10:23.496Z,2.43
2023-01-25T14:12:51.391Z,2.38
2023-01-25T14:15:24.609Z,2.40
2023-01-25T14:18:24.645Z,2.45
2023-01-25T14:20:51.653Z,2.37
2023-01-25T14:23:26.395Z,2.40
2023-01-25T14:25:54.104Z,2.33
2023-01-25T14:28:21.420Z,2.33
2023-01-25T14:30:52.960Z,2.30
2023-01-25T14:33:30.179Z,2.28
2023-01-25T14:36:24.555Z,2.37
2023-01-25T14:38:51.735Z,2.38
2023-01-25T14:41:48.823Z,2.39
2023-01-25T14:44:26.278Z,2.38
2023-01-25T14:47:45.227Z,2.36
2023-01-25T14:50:36.684Z,2.37
2023-01-25T14:53:19.993Z,2.39
2023-01-25T14:55:47.321Z,2.38
2023-01-25T14:58:22.246Z,2.39
2023-01-25T15:01:02.005Z,2.44
2023-01-25T15:03:29.691Z,2.47
2023-01-25T15:05:58.377Z,2.45
2023-01-25T15:08:39.247Z,2.43
2023-01-25T15:11:25.016Z,2.40
2023-01-25T15:14:01.889Z,2.38
2023-01-25T15:16:34.793Z,2.34
2023-01-25T15:19:01.463Z,2.38
2023-01-25T15:21:32.102Z,2.41
2023-01-25T15:24:06.534Z,2.45
2023-01-25T15:26:34.789Z,2.45
2023-01-25T15:29:05.208Z,2.35
2023-01-25T15:31:36.989Z,2.36
2023-01-25T15:34:04.265Z,2.38
2023-01-25T15:36:32.141Z,2.35
2023-01-25T15:38:58.931Z,2.34
2023-01-25T15:41:25.541Z,2.31
2023-01-25T15:43:52.615Z,2.29
2023-01-25T15:46:27.017Z,2.25
2023-01-25T15:48:53.771Z,2.26
2023-01-25T15:51:20.772Z,2.16
2023-01-25T15:53:47.811Z,2.20
2023-01-25T15:56:29.132Z,2.24
2023-01-25T15:58:59.249Z,2.25
2023-01-25T16:01:27.749Z,2.23
2023-01-25T16:03:58.844Z,2.22
2023-01-25T16:06:45.382Z,2.07
2023-01-25T16:09:26.994Z,2.06
2023-01-25T16:11:55.270Z,2.11
2023-01-25T16:14:23.746Z,2.13
2023-01-25T16:16:51.979Z,2.12
2023-01-25T16:19:21.987Z,2.10
2023-01-25T16:21:49.224Z,1.81
2023-01-25T16:24:16.180Z,1.89
2023-01-25T16:26:48.817Z,1.92
2023-01-25T16:29:15.464Z,1.79
2023-01-25T16:31:42.409Z,1.81
2023-01-25T16:34:09.436Z,1.90
2023-01-25T16:36:37.131Z,1.80
2023-01-25T16:39:10.496Z,1.85
2023-01-25T16:41:37.353Z,1.73
2023-01-25T16:44:03.990Z,1.72
2023-01-25T16:46:30.581Z,1.64
2023-01-25T16:48:58.837Z,1.70
2023-01-25T16:51:28.076Z,1.80
2023-01-25T16:53:56.617Z,1.85
2023-01-25T16:56:25.420Z,1.96
2023-01-25T16:58:53.419Z,2.00
2023-01-25T17:01:21.187Z,2.02
2023-01-25T17:03:48.034Z,2.05
2023-01-25T17:06:20.578Z,2.09
2023-01-25T17:08:47.912Z,2.11
2023-01-25T17:11:14.904Z,2.15
2023-01-25T17:13:41.624Z,2.11
2023-01-25T17:16:08.235Z,2.14
2023-01-25T17:18:34.868Z,2.14
2023-01-25T17:21:04.084Z,2.19
2023-01-25T17:23:32.233Z,2.21
2023-01-25T17:25:58.840Z,2.18
2023-01-25T17:28:25.431Z,2.16
2023-01-25T17:30:54.293Z,2.08
2023-01-25T17:33:21.087Z,2.07
2023-01-25T17:35:47.632Z,2.07
2023-01-25T17:38:14.454Z,2.09
2023-01-25T17:40:41.078Z,2.07
2023-01-25T17:43:07.636Z,2.00
2023-01-25T17:45:38.479Z,2.05
2023-01-25T17:48:06.833Z,2.04
2023-01-25T17:50:33.580Z,2.04
2023-01-25T17:53:00.211Z,2.05
2023-01-25T17:55:26.733Z,2.04
2023-01-25T17:57:53.281Z,2.06
2023-01-25T18:00:20.154Z,1.99
2023-01-25T18:02:46.826Z,2.02
2023-01-25T18:05:14.439Z,2.02
2023-01-25T18:07:41.684Z,2.05
2023-01-25T18:10:08.957Z,2.08
2023-01-25T18:12:35.697Z,2.09
2023-01-25T18:15:02.528Z,2.07
2023-01-25T18:17:29.134Z,2.04
2023-01-25T18:19:56.955Z,2.06
2023-01-25T18:22:23.719Z,1.98
2023-01-25T18:24:50.925Z,1.97
2023-01-25T18:27:20.276Z,1.92
2023-01-25T18:30:12.918Z,1.82
2023-01-25T18:32:39.496Z,1.64
2023-01-25T18:35:06.137Z,1.70
2023-01-25T18:37:39.511Z,1.57
2023-01-25T18:40:07.559Z,1.64
2023-01-25T18:42:34.165Z,1.65
2023-01-25T18:45:01.637Z,1.66
2023-01-25T18:47:28.931Z,1.60
2023-01-25T18:49:55.802Z,1.65
2023-01-25T18:52:23.303Z,1.69
2023-01-25T18:54:50.238Z,1.57
2023-01-25T18:57:17.268Z,1.59
2023-01-25T18:59:43.926Z,1.57
2023-01-25T19:02:12.515Z,1.56
2023-01-25T19:04:39.183Z,1.52
2023-01-25T19:07:05.825Z,1.44
2023-01-25T19:09:32.461Z,1.37
2023-01-25T19:11:59.458Z,1.50
2023-01-25T19:14:26.121Z,1.46
2023-01-25T19:16:52.662Z,1.41
2023-01-25T19:19:20.901Z,1.44
2023-01-25T19:21:47.800Z,1.55
2023-01-25T19:24:18.012Z,1.57
2023-01-25T19:26:45.720Z,1.58
2023-01-25T19:29:13.770Z,1.63
2023-01-25T19:31:40.323Z,1.68
2023-01-25T19:34:07.900Z,1.70
2023-01-25T19:36:37.256Z,1.73
2023-01-25T19:39:05.578Z,1.76
2023-01-25T19:41:33.410Z,1.79
2023-01-25T19:44:01.723Z,1.80
2023-01-25T19:46:30.708Z,1.80
2023-01-25T19:48:58.512Z,1.83
2023-01-25T19:51:30.517Z,1.66
2023-01-25T19:54:05.123Z,1.72
2023-01-25T19:56:35.533Z,1.77
2023-01-25T19:59:04.168Z,1.71
2023-01-25T20:01:30.976Z,1.69
2023-01-25T20:03:58.437Z,1.64
2023-01-25T20:06:26.314Z,1.62
2023-01-25T20:08:53.358Z,1.53
2023-01-25T20:11:22.652Z,1.57
2023-01-25T20:13:51.111Z,1.50
2023-01-25T20:16:18.673Z,1.46
2023-01-25T20:18:46.303Z,1.38
2023-01-25T20:21:15.343Z,1.42
2023-01-25T20:23:44.510Z,1.42
2023-01-25T20:26:19.638Z,1.46
2023-01-25T20:28:48.287Z,1.53
2023-01-25T20:31:20.975Z,1.59
2023-01-25T20:33:48.123Z,1.61
2023-01-25T20:36:14.783Z,1.64
2023-01-25T20:38:41.533Z,1.67
2023-01-25T20:41:10.060Z,1.62
2023-01-25T20:43:36.606Z,1.57
2023-01-25T20:46:03.350Z,1.54
2023-01-25T20:48:36.264Z,1.59
2023-01-25T20:51:12.944Z,1.65
2023-01-25T20:53:40.882Z,1.66
2023-01-25T20:56:10.710Z,1.69
2023-01-25T20:58:38.499Z,1.70
2023-01-25T21:01:13.689Z,1.72
2023-01-25T21:03:40.391Z,1.69
2023-01-25T21:06:07.269Z,1.63
2023-01-25T21:08:33.826Z,1.63
2023-01-25T21:11:00.533Z,1.68
2023-01-25T21:13:28.631Z,1.71
2023-01-25T21:16:11.413Z,1.73
2023-01-25T21:18:43.154Z,1.72
2023-01-25T21:21:15.360Z,1.76
2023-01-25T21:23:44.795Z,1.77
2023-01-25T21:26:17.502Z,1.79
2023-01-25T21:28:44.086Z,1.74
2023-01-25T21:31:16.387Z,1.68
2023-01-25T21:33:43.234Z,1.62
2023-01-25T21:36:14.272Z,1.67
2023-01-25T21:38:44.553Z,1.59
2023-01-25T21:41:19.950Z,1.66
2023-01-25T21:44:06.112Z,1.70
2023-01-25T21:46:33.205Z,1.68
2023-01-25T21:49:20.541Z,1.67
2023-01-25T21:51:49.609Z,1.68
2023-01-25T21:54:18.563Z,1.64
2023-01-25T21:56:46.073Z,1.67
2023-01-25T21:59:13.076Z,1.68
2023-01-25T22:01:39.697Z,1.66
2023-01-25T22:04:06.448Z,1.68
2023-01-25T22:06:33.292Z,1.68
2023-01-25T22:08:59.896Z,1.72
2023-01-25T22:11:26.472Z,1.72
2023-01-25T22:13:54.015Z,1.70
2023-01-25T22:16:21.382Z,1.73
2023-01-25T22:18:48.424Z,1.73
2023-01-25T22:21:18.896Z,1.72
2023-01-25T22:23:45.584Z,1.69
2023-01-25T22:26:17.578Z,1.72
2023-01-25T22:28:59.934Z,1.68
2023-01-25T22:31:28.995Z,1.68
2023-01-25T22:33:56.402Z,1.67
2023-01-25T22:36:26.669Z,1.67
2023-01-25T22:38:56.371Z,1.65
2023-01-25T22:41:25.427Z,1.66
2023-01-25T22:43:52.647Z,1.69
2023-01-25T22:46:21.720Z,1.68
2023-01-25T22:48:48.288Z,1.65
2023-01-25T22:51:18.950Z,1.66
2023-01-25T22:53:45.664Z,1.63
2023-01-25T22:56:15.009Z,1.63
2023-01-25T22:58:42.917Z,1.63
2023-01-25T23:01:11.647Z,1.66
2023-01-25T23:03:38.663Z,1.70
2023-01-25T23:06:07.965Z,1.70
2023-01-25T23:08:36.406Z,1.70
2023-01-25T23:11:05.044Z,1.76
2023-01-25T23:13:31.856Z,1.74
2023-01-25T23:16:03.529Z,1.66
2023-01-25T23:18:49.171Z,1.69
2023-01-25T23:21:16.933Z,1.67
2023-01-25T23:23:43.450Z,1.69
2023-01-25T23:26:10.612Z,1.72
2023-01-25T23:28:37.541Z,1.71
2023-01-25T23:31:17.835Z,1.72
2023-01-25T23:33:52.669Z,1.70
2023-01-25T23:36:21.860Z,1.69
2023-01-25T23:38:49.156Z,1.66
2023-01-25T23:41:16.719Z,1.64
2023-01-25T23:43:43.650Z,1.64
2023-01-25T23:46:10.441Z,1.65
2023-01-25T23:48:37.073Z,1.65
2023-01-25T23:51:03.782Z,1.63
2023-01-25T23:53:31.577Z,1.66
2023-01-25T23:56:00.702Z,1.68
2023-01-25T23:58:27.914Z,1.64
